KLM431 LDSP-EHAM
Flight info
| Callsign | KLM431 |
|---|---|
| Flight time | 2h 2m |
| Altitude | 36000 |
| Route | ZDA DCT EBITA DCT PUL DCT NAKIT DCT PEVAL DCT BRENO DCT KONIN M726 MAH DCT ASPAT DCT MASEK DCT MAPOX DCT NORKU |
| Aircraft | A21N/M-SDE2E3FGHIRWXY/LB1 |
Departure
| Time | 2026-04-30 09:38 |
|---|---|
| Airport | Split Saint Jerome Airport (LDSP) |
Arrival
| Time | 2026-04-30 11:40 |
|---|---|
| Airport | Amsterdam Airport Schiphol (EHAM) |
| Time | Latitude | Longitude | Altitude | Speed | Heading |
|---|---|---|---|---|---|
| 2026-04-30 09:31 | 43.53735 | 16.29844 | 87 ft | 0 kts | 121° |
| 2026-04-30 09:34 | 43.53735 | 16.29845 | 87 ft | 1 kts | 120° |
| 2026-04-30 09:35 | 43.53740 | 16.29856 | 85 ft | 1 kts | 34° |
| 2026-04-30 09:35 | 43.53753 | 16.29838 | 86 ft | 7 kts | 278° |
| 2026-04-30 09:35 | 43.53743 | 16.29776 | 88 ft | 7 kts | 244° |
| 2026-04-30 09:35 | 43.53696 | 16.29674 | 91 ft | 10 kts | 245° |
| 2026-04-30 09:36 | 43.53694 | 16.29508 | 88 ft | 27 kts | 261° |
| 2026-04-30 09:36 | 43.53577 | 16.29241 | 87 ft | 36 kts | 232° |
| 2026-04-30 09:36 | 43.53424 | 16.28966 | 89 ft | 36 kts | 232° |
| 2026-04-30 09:36 | 43.53276 | 16.28704 | 94 ft | 32 kts | 227° |
| 2026-04-30 09:37 | 43.53212 | 16.28602 | 92 ft | 1 kts | 291° |
| 2026-04-30 09:37 | 43.53219 | 16.28599 | 92 ft | 1 kts | 346° |
| 2026-04-30 09:37 | 43.53244 | 16.28637 | 93 ft | 26 kts | 50° |
| 2026-04-30 09:37 | 43.53523 | 16.29135 | 89 ft | 105 kts | 52° |
| 2026-04-30 09:38 | 43.54108 | 16.30190 | 254 ft | 159 kts | 53° |
| 2026-04-30 09:38 | 43.54717 | 16.31645 | 680 ft | 188 kts | 70° |
| 2026-04-30 09:38 | 43.54671 | 16.33443 | 1302 ft | 202 kts | 112° |
| 2026-04-30 09:38 | 43.53672 | 16.34912 | 2021 ft | 221 kts | 138° |
| 2026-04-30 09:39 | 43.52343 | 16.36093 | 2843 ft | 231 kts | 140° |
| 2026-04-30 09:39 | 43.50973 | 16.37255 | 3598 ft | 231 kts | 140° |
| 2026-04-30 09:39 | 43.49625 | 16.38440 | 4415 ft | 235 kts | 140° |
| 2026-04-30 09:39 | 43.48238 | 16.39698 | 5340 ft | 237 kts | 141° |
| 2026-04-30 09:40 | 43.46813 | 16.40860 | 6100 ft | 250 kts | 158° |
| 2026-04-30 09:40 | 43.45058 | 16.40999 | 6760 ft | 265 kts | 195° |
| 2026-04-30 09:40 | 43.43454 | 16.39701 | 7301 ft | 276 kts | 231° |
| 2026-04-30 09:40 | 43.42411 | 16.37447 | 7932 ft | 284 kts | 247° |
| 2026-04-30 09:41 | 43.41474 | 16.35039 | 8857 ft | 286 kts | 244° |
| 2026-04-30 09:41 | 43.40436 | 16.32665 | 9724 ft | 293 kts | 240° |
| 2026-04-30 09:41 | 43.39289 | 16.30308 | 10502 ft | 302 kts | 238° |
| 2026-04-30 09:41 | 43.38053 | 16.27846 | 10915 ft | 323 kts | 241° |
| 2026-04-30 09:42 | 43.37055 | 16.24991 | 11264 ft | 340 kts | 256° |
| 2026-04-30 09:42 | 43.36712 | 16.21724 | 11582 ft | 354 kts | 275° |
| 2026-04-30 09:42 | 43.37220 | 16.18392 | 12051 ft | 361 kts | 295° |
| 2026-04-30 09:42 | 43.38546 | 16.15471 | 12757 ft | 362 kts | 314° |
| 2026-04-30 09:43 | 43.40405 | 16.13132 | 13547 ft | 364 kts | 322° |
| 2026-04-30 09:43 | 43.42403 | 16.10954 | 14282 ft | 369 kts | 323° |
| 2026-04-30 09:43 | 43.44435 | 16.08775 | 15033 ft | 371 kts | 322° |
| 2026-04-30 09:43 | 43.46467 | 16.06581 | 15821 ft | 372 kts | 321° |
| 2026-04-30 09:44 | 43.48505 | 16.04363 | 16602 ft | 374 kts | 321° |
| 2026-04-30 09:44 | 43.50525 | 16.02152 | 17310 ft | 377 kts | 321° |
| 2026-04-30 09:44 | 43.52584 | 15.99894 | 18035 ft | 379 kts | 321° |
| 2026-04-30 09:44 | 43.54660 | 15.97612 | 18667 ft | 383 kts | 320° |
| 2026-04-30 09:45 | 43.56751 | 15.95310 | 19248 ft | 386 kts | 320° |
| 2026-04-30 09:45 | 43.58853 | 15.92993 | 19845 ft | 388 kts | 320° |
| 2026-04-30 09:45 | 43.60970 | 15.90656 | 20437 ft | 390 kts | 320° |
| 2026-04-30 09:45 | 43.63096 | 15.88307 | 21010 ft | 392 kts | 320° |
| 2026-04-30 09:46 | 43.65233 | 15.85943 | 21580 ft | 395 kts | 319° |
| 2026-04-30 09:46 | 43.67381 | 15.83564 | 22150 ft | 397 kts | 319° |
| 2026-04-30 09:46 | 43.69553 | 15.81157 | 22716 ft | 400 kts | 319° |
| 2026-04-30 09:46 | 43.71706 | 15.78769 | 23255 ft | 402 kts | 319° |
| 2026-04-30 09:47 | 43.73892 | 15.76342 | 23796 ft | 405 kts | 319° |
| 2026-04-30 09:47 | 43.76099 | 15.73889 | 24235 ft | 407 kts | 319° |
| 2026-04-30 09:47 | 43.78312 | 15.71427 | 24671 ft | 409 kts | 319° |
| 2026-04-30 09:47 | 43.80530 | 15.68957 | 25110 ft | 410 kts | 318° |
| 2026-04-30 09:48 | 43.82759 | 15.66472 | 25545 ft | 412 kts | 318° |
| 2026-04-30 09:48 | 43.84997 | 15.63975 | 25946 ft | 414 kts | 319° |
| 2026-04-30 09:48 | 43.87250 | 15.61458 | 26303 ft | 417 kts | 319° |
| 2026-04-30 09:48 | 43.89511 | 15.58931 | 26711 ft | 418 kts | 318° |
| 2026-04-30 09:49 | 43.91762 | 15.56412 | 27279 ft | 415 kts | 318° |
| 2026-04-30 09:49 | 43.94010 | 15.53894 | 27860 ft | 413 kts | 318° |
| 2026-04-30 09:49 | 43.96246 | 15.51388 | 28297 ft | 413 kts | 318° |
| 2026-04-30 09:49 | 43.98478 | 15.48882 | 28811 ft | 411 kts | 318° |
| 2026-04-30 09:50 | 44.00668 | 15.46422 | 29343 ft | 409 kts | 318° |
| 2026-04-30 09:50 | 44.02869 | 15.43947 | 29849 ft | 406 kts | 317° |
| 2026-04-30 09:50 | 44.04346 | 15.42284 | 30181 ft | 405 kts | 317° |
| 2026-04-30 09:50 | 44.07240 | 15.39011 | 30693 ft | 403 kts | 316° |
| 2026-04-30 09:51 | 44.09273 | 15.36349 | 30988 ft | 401 kts | 310° |
| 2026-04-30 09:51 | 44.11036 | 15.33356 | 31266 ft | 400 kts | 305° |
| 2026-04-30 09:51 | 44.12147 | 15.31243 | 31480 ft | 399 kts | 304° |
| 2026-04-30 09:51 | 44.13734 | 15.28083 | 31803 ft | 399 kts | 303° |
| 2026-04-30 09:52 | 44.15289 | 15.24888 | 32099 ft | 398 kts | 302° |
| 2026-04-30 09:52 | 44.16835 | 15.21676 | 32388 ft | 398 kts | 302° |
| 2026-04-30 09:52 | 44.18362 | 15.18499 | 32588 ft | 401 kts | 303° |
| 2026-04-30 09:52 | 44.19927 | 15.15253 | 32730 ft | 405 kts | 303° |
| 2026-04-30 09:53 | 44.21501 | 15.12006 | 33036 ft | 404 kts | 303° |
| 2026-04-30 09:53 | 44.23074 | 15.08770 | 33373 ft | 402 kts | 303° |
| 2026-04-30 09:53 | 44.24644 | 15.05543 | 33685 ft | 401 kts | 303° |
| 2026-04-30 09:53 | 44.26209 | 15.02328 | 33952 ft | 400 kts | 303° |
| 2026-04-30 09:54 | 44.27775 | 14.99108 | 34231 ft | 400 kts | 303° |
| 2026-04-30 09:54 | 44.29334 | 14.95896 | 34445 ft | 399 kts | 303° |
| 2026-04-30 09:54 | 44.30895 | 14.92678 | 34624 ft | 400 kts | 303° |
| 2026-04-30 09:54 | 44.32454 | 14.89458 | 34800 ft | 401 kts | 303° |
| 2026-04-30 09:55 | 44.34012 | 14.86237 | 34972 ft | 401 kts | 303° |
| 2026-04-30 09:55 | 44.35572 | 14.83008 | 35150 ft | 401 kts | 303° |
| 2026-04-30 09:55 | 44.37135 | 14.79769 | 35322 ft | 401 kts | 303° |
| 2026-04-30 09:55 | 44.38785 | 14.76616 | 35486 ft | 402 kts | 308° |
| 2026-04-30 09:56 | 44.40546 | 14.73576 | 35651 ft | 403 kts | 308° |
| 2026-04-30 09:56 | 44.42313 | 14.70593 | 35810 ft | 403 kts | 309° |
| 2026-04-30 09:56 | 44.44142 | 14.67548 | 35960 ft | 404 kts | 309° |
| 2026-04-30 09:56 | 44.45945 | 14.64562 | 36010 ft | 407 kts | 309° |
| 2026-04-30 09:57 | 44.47772 | 14.61542 | 36164 ft | 407 kts | 309° |
| 2026-04-30 09:57 | 44.49607 | 14.58504 | 36232 ft | 408 kts | 309° |
| 2026-04-30 09:57 | 44.53265 | 14.52430 | 36238 ft | 407 kts | 309° |
| 2026-04-30 09:58 | 44.56915 | 14.46342 | 36236 ft | 407 kts | 309° |
| 2026-04-30 09:58 | 44.60557 | 14.40251 | 36243 ft | 408 kts | 309° |
| 2026-04-30 09:59 | 44.67854 | 14.28009 | 36249 ft | 408 kts | 309° |
| 2026-04-30 10:00 | 44.73315 | 14.18813 | 36255 ft | 411 kts | 309° |
| 2026-04-30 10:01 | 44.78822 | 14.09509 | 36252 ft | 413 kts | 309° |
| 2026-04-30 10:02 | 44.84338 | 14.00161 | 36291 ft | 413 kts | 309° |
| 2026-04-30 10:02 | 44.88006 | 13.93928 | 36290 ft | 413 kts | 309° |
| 2026-04-30 10:03 | 44.91724 | 13.87809 | 36294 ft | 413 kts | 311° |
| 2026-04-30 10:03 | 44.95560 | 13.81762 | 36293 ft | 415 kts | 312° |
| 2026-04-30 10:04 | 44.99452 | 13.75648 | 36287 ft | 416 kts | 312° |
| 2026-04-30 10:04 | 45.03284 | 13.69586 | 36267 ft | 416 kts | 311° |
| 2026-04-30 10:05 | 45.07131 | 13.63467 | 36271 ft | 416 kts | 311° |
| 2026-04-30 10:05 | 45.10978 | 13.57329 | 36278 ft | 416 kts | 311° |
| 2026-04-30 10:06 | 45.14817 | 13.51189 | 36280 ft | 417 kts | 312° |
| 2026-04-30 10:06 | 45.18657 | 13.45034 | 36297 ft | 417 kts | 312° |
| 2026-04-30 10:07 | 45.22492 | 13.38839 | 36293 ft | 418 kts | 312° |
| 2026-04-30 10:07 | 45.26288 | 13.32670 | 36301 ft | 418 kts | 312° |
| 2026-04-30 10:08 | 45.30137 | 13.26477 | 36297 ft | 417 kts | 315° |
| 2026-04-30 10:08 | 45.34530 | 13.21110 | 36299 ft | 416 kts | 322° |
| 2026-04-30 10:09 | 45.39108 | 13.16085 | 36298 ft | 416 kts | 323° |
| 2026-04-30 10:09 | 45.43728 | 13.11116 | 36305 ft | 416 kts | 323° |
| 2026-04-30 10:10 | 45.48325 | 13.06156 | 36303 ft | 416 kts | 323° |
| 2026-04-30 10:10 | 45.52936 | 13.01150 | 36303 ft | 416 kts | 323° |
| 2026-04-30 10:11 | 45.57542 | 12.96129 | 36283 ft | 416 kts | 323° |
| 2026-04-30 10:11 | 45.62154 | 12.91090 | 36305 ft | 417 kts | 323° |
| 2026-04-30 10:12 | 45.66766 | 12.86040 | 36309 ft | 418 kts | 323° |
| 2026-04-30 10:12 | 45.71380 | 12.80979 | 36306 ft | 418 kts | 323° |
| 2026-04-30 10:13 | 45.75994 | 12.75906 | 36311 ft | 418 kts | 323° |
| 2026-04-30 10:13 | 45.80579 | 12.70855 | 36314 ft | 418 kts | 323° |
| 2026-04-30 10:14 | 45.85193 | 12.65761 | 36312 ft | 419 kts | 323° |
| 2026-04-30 10:14 | 45.92128 | 12.58083 | 36322 ft | 421 kts | 323° |
| 2026-04-30 10:15 | 45.96766 | 12.52935 | 36328 ft | 422 kts | 323° |
| 2026-04-30 10:15 | 46.01412 | 12.47766 | 36316 ft | 422 kts | 323° |
| 2026-04-30 10:16 | 46.06054 | 12.42591 | 36318 ft | 422 kts | 323° |
| 2026-04-30 10:17 | 46.12979 | 12.34849 | 36313 ft | 421 kts | 323° |
| 2026-04-30 10:17 | 46.19933 | 12.27050 | 36298 ft | 421 kts | 323° |
| 2026-04-30 10:18 | 46.24566 | 12.21839 | 36280 ft | 422 kts | 323° |
| 2026-04-30 10:19 | 46.31507 | 12.14011 | 36278 ft | 422 kts | 323° |
| 2026-04-30 10:19 | 46.36138 | 12.08774 | 36240 ft | 424 kts | 324° |
| 2026-04-30 10:20 | 46.40794 | 12.03497 | 36264 ft | 425 kts | 324° |
| 2026-04-30 10:20 | 46.47779 | 11.95560 | 36256 ft | 425 kts | 324° |
| 2026-04-30 10:21 | 46.52432 | 11.90256 | 36247 ft | 425 kts | 323° |
| 2026-04-30 10:21 | 46.57090 | 11.84936 | 36254 ft | 425 kts | 324° |
| 2026-04-30 10:22 | 46.61719 | 11.79635 | 36247 ft | 427 kts | 324° |
| 2026-04-30 10:22 | 46.66397 | 11.74267 | 36249 ft | 427 kts | 324° |
| 2026-04-30 10:23 | 46.71070 | 11.68893 | 36252 ft | 428 kts | 324° |
| 2026-04-30 10:23 | 46.75734 | 11.63517 | 36252 ft | 427 kts | 324° |
| 2026-04-30 10:24 | 46.80393 | 11.58134 | 36265 ft | 427 kts | 324° |
| 2026-04-30 10:24 | 46.85076 | 11.52712 | 36263 ft | 430 kts | 324° |
| 2026-04-30 10:25 | 46.89764 | 11.47272 | 36272 ft | 431 kts | 324° |
| 2026-04-30 10:25 | 46.94498 | 11.42002 | 36276 ft | 428 kts | 331° |
| 2026-04-30 10:26 | 46.99893 | 11.38491 | 36278 ft | 422 kts | 348° |
| 2026-04-30 10:26 | 47.05694 | 11.37514 | 36281 ft | 419 kts | 359° |
| 2026-04-30 10:27 | 47.11533 | 11.37402 | 36292 ft | 419 kts | 1° |
| 2026-04-30 10:27 | 47.17364 | 11.37425 | 36291 ft | 419 kts | 1° |
| 2026-04-30 10:28 | 47.23157 | 11.37416 | 36293 ft | 419 kts | 1° |
| 2026-04-30 10:28 | 47.28967 | 11.37370 | 36290 ft | 416 kts | 1° |
| 2026-04-30 10:29 | 47.34765 | 11.37311 | 36290 ft | 416 kts | 1° |
| 2026-04-30 10:29 | 47.40544 | 11.37252 | 36292 ft | 415 kts | 1° |
| 2026-04-30 10:30 | 47.46328 | 11.37194 | 36302 ft | 415 kts | 2° |
| 2026-04-30 10:30 | 47.52089 | 11.37136 | 36298 ft | 413 kts | 2° |
| 2026-04-30 10:31 | 47.57798 | 11.37081 | 36311 ft | 413 kts | 2° |
| 2026-04-30 10:31 | 47.63539 | 11.37024 | 36311 ft | 413 kts | 2° |
| 2026-04-30 10:32 | 47.69306 | 11.36967 | 36322 ft | 413 kts | 2° |
| 2026-04-30 10:32 | 47.75061 | 11.36909 | 36334 ft | 413 kts | 2° |
| 2026-04-30 10:33 | 47.80809 | 11.36852 | 36332 ft | 413 kts | 2° |
| 2026-04-30 10:33 | 47.86552 | 11.36751 | 36338 ft | 413 kts | 1° |
| 2026-04-30 10:34 | 47.92298 | 11.36327 | 36344 ft | 413 kts | 360° |
| 2026-04-30 10:34 | 47.97996 | 11.35793 | 36345 ft | 413 kts | 360° |
| 2026-04-30 10:35 | 48.03731 | 11.35269 | 36347 ft | 413 kts | 360° |
| 2026-04-30 10:35 | 48.09471 | 11.34590 | 36345 ft | 414 kts | 357° |
| 2026-04-30 10:36 | 48.15191 | 11.33485 | 36347 ft | 414 kts | 356° |
| 2026-04-30 10:36 | 48.20896 | 11.32299 | 36348 ft | 414 kts | 356° |
| 2026-04-30 10:37 | 48.25627 | 11.31122 | 36348 ft | 417 kts | 349° |
| 2026-04-30 10:37 | 48.32067 | 11.27719 | 36356 ft | 421 kts | 343° |
| 2026-04-30 10:38 | 48.36585 | 11.24958 | 36372 ft | 422 kts | 342° |
| 2026-04-30 10:38 | 48.42022 | 11.21550 | 36370 ft | 424 kts | 342° |
| 2026-04-30 10:39 | 48.47471 | 11.18137 | 36372 ft | 424 kts | 342° |
| 2026-04-30 10:39 | 48.52927 | 11.14733 | 36388 ft | 424 kts | 342° |
| 2026-04-30 10:40 | 48.58395 | 11.11323 | 36390 ft | 424 kts | 342° |
| 2026-04-30 10:40 | 48.63821 | 11.07933 | 36394 ft | 424 kts | 342° |
| 2026-04-30 10:41 | 48.69285 | 11.04511 | 36399 ft | 424 kts | 342° |
| 2026-04-30 10:41 | 48.74738 | 11.01086 | 36398 ft | 424 kts | 342° |
| 2026-04-30 10:42 | 48.80193 | 10.97651 | 36408 ft | 424 kts | 342° |
| 2026-04-30 10:42 | 48.85654 | 10.94207 | 36404 ft | 425 kts | 342° |
| 2026-04-30 10:43 | 48.91124 | 10.90748 | 36410 ft | 426 kts | 342° |
| 2026-04-30 10:43 | 48.96557 | 10.87303 | 36413 ft | 426 kts | 342° |
| 2026-04-30 10:44 | 49.02030 | 10.83825 | 36418 ft | 426 kts | 342° |
| 2026-04-30 10:44 | 49.07489 | 10.80347 | 36424 ft | 425 kts | 342° |
| 2026-04-30 10:45 | 49.12951 | 10.76859 | 36437 ft | 425 kts | 342° |
| 2026-04-30 10:45 | 49.18412 | 10.73364 | 36435 ft | 425 kts | 342° |
| 2026-04-30 10:46 | 49.23829 | 10.69685 | 36392 ft | 426 kts | 340° |
| 2026-04-30 10:46 | 49.29209 | 10.65825 | 36412 ft | 427 kts | 340° |
| 2026-04-30 10:47 | 49.34595 | 10.61937 | 36413 ft | 427 kts | 340° |
| 2026-04-30 10:47 | 49.39978 | 10.58068 | 36414 ft | 427 kts | 340° |
| 2026-04-30 10:48 | 49.45370 | 10.54198 | 36416 ft | 427 kts | 340° |
| 2026-04-30 10:48 | 49.50724 | 10.50350 | 36418 ft | 427 kts | 340° |
| 2026-04-30 10:49 | 49.56103 | 10.46473 | 36419 ft | 426 kts | 340° |
| 2026-04-30 10:49 | 49.61475 | 10.42592 | 36426 ft | 426 kts | 340° |
| 2026-04-30 10:50 | 49.66843 | 10.38703 | 36414 ft | 427 kts | 340° |
| 2026-04-30 10:50 | 49.72228 | 10.34794 | 36427 ft | 428 kts | 340° |
| 2026-04-30 10:51 | 49.77616 | 10.30871 | 36427 ft | 427 kts | 340° |
| 2026-04-30 10:51 | 49.82995 | 10.26944 | 36432 ft | 427 kts | 340° |
| 2026-04-30 10:52 | 49.88342 | 10.23032 | 36435 ft | 427 kts | 340° |
| 2026-04-30 10:52 | 49.93714 | 10.19092 | 36432 ft | 427 kts | 340° |
| 2026-04-30 10:53 | 49.99088 | 10.15141 | 36440 ft | 427 kts | 340° |
| 2026-04-30 10:53 | 50.04447 | 10.11191 | 36435 ft | 426 kts | 340° |
| 2026-04-30 10:54 | 50.09808 | 10.07231 | 36430 ft | 427 kts | 339° |
| 2026-04-30 10:54 | 50.15190 | 10.03246 | 36433 ft | 428 kts | 339° |
| 2026-04-30 10:55 | 50.20565 | 9.99254 | 36442 ft | 428 kts | 339° |
| 2026-04-30 10:55 | 50.25958 | 9.95238 | 36436 ft | 428 kts | 339° |
| 2026-04-30 10:56 | 50.31329 | 9.91228 | 36435 ft | 428 kts | 339° |
| 2026-04-30 10:56 | 50.36665 | 9.87235 | 36439 ft | 427 kts | 339° |
| 2026-04-30 10:57 | 50.42027 | 9.83213 | 36440 ft | 427 kts | 339° |
| 2026-04-30 10:57 | 50.47397 | 9.79175 | 36439 ft | 428 kts | 339° |
| 2026-04-30 10:58 | 50.52765 | 9.75129 | 36444 ft | 428 kts | 339° |
| 2026-04-30 10:58 | 50.58142 | 9.71066 | 36442 ft | 429 kts | 339° |
| 2026-04-30 10:59 | 50.63521 | 9.66990 | 36439 ft | 429 kts | 339° |
| 2026-04-30 10:59 | 50.68861 | 9.62927 | 36447 ft | 429 kts | 338° |
| 2026-04-30 11:00 | 50.73829 | 9.57542 | 36446 ft | 439 kts | 321° |
| 2026-04-30 11:00 | 50.77980 | 9.50355 | 36454 ft | 444 kts | 315° |
| 2026-04-30 11:01 | 50.81911 | 9.42802 | 36447 ft | 445 kts | 314° |
| 2026-04-30 11:01 | 50.85790 | 9.35210 | 36447 ft | 447 kts | 314° |
| 2026-04-30 11:02 | 50.89716 | 9.27568 | 36449 ft | 447 kts | 314° |
| 2026-04-30 11:02 | 50.93651 | 9.19934 | 36450 ft | 447 kts | 314° |
| 2026-04-30 11:03 | 50.97585 | 9.12293 | 36457 ft | 447 kts | 314° |
| 2026-04-30 11:04 | 51.03490 | 9.00782 | 36452 ft | 448 kts | 314° |
| 2026-04-30 11:04 | 51.07423 | 8.93084 | 36451 ft | 449 kts | 314° |
| 2026-04-30 11:05 | 51.11334 | 8.85405 | 36449 ft | 448 kts | 314° |
| 2026-04-30 11:05 | 51.15460 | 8.78016 | 36456 ft | 445 kts | 318° |
| 2026-04-30 11:06 | 51.19751 | 8.70877 | 36443 ft | 445 kts | 319° |
| 2026-04-30 11:06 | 51.24070 | 8.63787 | 36444 ft | 445 kts | 319° |
| 2026-04-30 11:07 | 51.28359 | 8.56730 | 36431 ft | 446 kts | 319° |
| 2026-04-30 11:07 | 51.32669 | 8.49601 | 36358 ft | 445 kts | 319° |
| 2026-04-30 11:07 | 51.34812 | 8.46045 | 35728 ft | 444 kts | 319° |
| 2026-04-30 11:08 | 51.36957 | 8.42482 | 34952 ft | 446 kts | 319° |
| 2026-04-30 11:08 | 51.39114 | 8.38895 | 34117 ft | 449 kts | 319° |
| 2026-04-30 11:08 | 51.41285 | 8.35279 | 33241 ft | 451 kts | 318° |
| 2026-04-30 11:08 | 51.43459 | 8.31652 | 32412 ft | 452 kts | 318° |
| 2026-04-30 11:09 | 51.45642 | 8.28004 | 31584 ft | 454 kts | 318° |
| 2026-04-30 11:09 | 51.47830 | 8.24342 | 30729 ft | 456 kts | 318° |
| 2026-04-30 11:09 | 51.50025 | 8.20663 | 29763 ft | 457 kts | 318° |
| 2026-04-30 11:09 | 51.52230 | 8.16963 | 28707 ft | 460 kts | 317° |
| 2026-04-30 11:10 | 51.54448 | 8.13236 | 27671 ft | 463 kts | 317° |
| 2026-04-30 11:10 | 51.56677 | 8.09481 | 26640 ft | 465 kts | 317° |
| 2026-04-30 11:10 | 51.58916 | 8.05706 | 25613 ft | 468 kts | 317° |
| 2026-04-30 11:10 | 51.61165 | 8.01908 | 24630 ft | 470 kts | 316° |
| 2026-04-30 11:11 | 51.63429 | 7.98077 | 23939 ft | 472 kts | 316° |
| 2026-04-30 11:11 | 51.65689 | 7.94246 | 23512 ft | 472 kts | 316° |
| 2026-04-30 11:11 | 51.67951 | 7.90407 | 23428 ft | 471 kts | 316° |
| 2026-04-30 11:11 | 51.70202 | 7.86580 | 23429 ft | 470 kts | 316° |
| 2026-04-30 11:12 | 51.72418 | 7.82808 | 23431 ft | 469 kts | 316° |
| 2026-04-30 11:12 | 51.74663 | 7.78981 | 23435 ft | 469 kts | 316° |
| 2026-04-30 11:12 | 51.76905 | 7.75155 | 23429 ft | 470 kts | 316° |
| 2026-04-30 11:12 | 51.79150 | 7.71316 | 23430 ft | 470 kts | 316° |
| 2026-04-30 11:13 | 51.81400 | 7.67463 | 23428 ft | 470 kts | 316° |
| 2026-04-30 11:13 | 51.83642 | 7.63616 | 23429 ft | 470 kts | 316° |
| 2026-04-30 11:13 | 51.85881 | 7.59770 | 23426 ft | 470 kts | 316° |
| 2026-04-30 11:13 | 51.88124 | 7.55911 | 23433 ft | 470 kts | 316° |
| 2026-04-30 11:14 | 51.90364 | 7.52050 | 23434 ft | 470 kts | 316° |
| 2026-04-30 11:14 | 51.92603 | 7.48187 | 23429 ft | 470 kts | 316° |
| 2026-04-30 11:14 | 51.94838 | 7.44322 | 23434 ft | 470 kts | 316° |
| 2026-04-30 11:14 | 51.97077 | 7.40445 | 23433 ft | 470 kts | 316° |
| 2026-04-30 11:15 | 51.99312 | 7.36570 | 23428 ft | 470 kts | 316° |
| 2026-04-30 11:15 | 52.01546 | 7.32690 | 23432 ft | 471 kts | 315° |
| 2026-04-30 11:15 | 52.03790 | 7.28787 | 23433 ft | 471 kts | 315° |
| 2026-04-30 11:15 | 52.05996 | 7.24943 | 23427 ft | 472 kts | 316° |
| 2026-04-30 11:16 | 52.08236 | 7.21036 | 23427 ft | 472 kts | 315° |
| 2026-04-30 11:16 | 52.10474 | 7.17125 | 23431 ft | 472 kts | 315° |
| 2026-04-30 11:16 | 52.12708 | 7.13213 | 23432 ft | 472 kts | 315° |
| 2026-04-30 11:16 | 52.14944 | 7.09292 | 23430 ft | 472 kts | 315° |
| 2026-04-30 11:17 | 52.17172 | 7.05377 | 23428 ft | 472 kts | 315° |
| 2026-04-30 11:17 | 52.19404 | 7.01451 | 23440 ft | 472 kts | 315° |
| 2026-04-30 11:17 | 52.21619 | 6.97499 | 23425 ft | 473 kts | 314° |
| 2026-04-30 11:17 | 52.23734 | 6.93389 | 23428 ft | 473 kts | 312° |
| 2026-04-30 11:18 | 52.25817 | 6.89219 | 23424 ft | 474 kts | 311° |
| 2026-04-30 11:18 | 52.29644 | 6.80435 | 23234 ft | 475 kts | 299° |
| 2026-04-30 11:18 | 52.30908 | 6.75466 | 22377 ft | 472 kts | 290° |
| 2026-04-30 11:19 | 52.31879 | 6.70413 | 21459 ft | 469 kts | 288° |
| 2026-04-30 11:19 | 52.32788 | 6.65296 | 20566 ft | 467 kts | 287° |
| 2026-04-30 11:19 | 52.33673 | 6.60214 | 19694 ft | 464 kts | 287° |
| 2026-04-30 11:19 | 52.34549 | 6.55155 | 18829 ft | 461 kts | 287° |
| 2026-04-30 11:20 | 52.35420 | 6.50121 | 17896 ft | 458 kts | 287° |
| 2026-04-30 11:20 | 52.36279 | 6.45144 | 17075 ft | 452 kts | 287° |
| 2026-04-30 11:20 | 52.37128 | 6.40212 | 16302 ft | 446 kts | 287° |
| 2026-04-30 11:20 | 52.37963 | 6.35353 | 15531 ft | 440 kts | 287° |
| 2026-04-30 11:21 | 52.38784 | 6.30561 | 14771 ft | 435 kts | 287° |
| 2026-04-30 11:21 | 52.39595 | 6.25819 | 13981 ft | 430 kts | 287° |
| 2026-04-30 11:21 | 52.40384 | 6.21189 | 13122 ft | 426 kts | 286° |
| 2026-04-30 11:21 | 52.41176 | 6.16537 | 12280 ft | 422 kts | 286° |
| 2026-04-30 11:22 | 52.41951 | 6.11962 | 11799 ft | 409 kts | 286° |
| 2026-04-30 11:22 | 52.42696 | 6.07557 | 11518 ft | 393 kts | 286° |
| 2026-04-30 11:22 | 52.43407 | 6.03333 | 11269 ft | 377 kts | 285° |
| 2026-04-30 11:22 | 52.44090 | 5.99274 | 11028 ft | 362 kts | 285° |
| 2026-04-30 11:23 | 52.44747 | 5.95367 | 10817 ft | 348 kts | 285° |
| 2026-04-30 11:23 | 52.45376 | 5.91617 | 10624 ft | 335 kts | 285° |
| 2026-04-30 11:23 | 52.46572 | 5.84449 | 9961 ft | 321 kts | 285° |
| 2026-04-30 11:24 | 52.47156 | 5.80940 | 9510 ft | 317 kts | 285° |
| 2026-04-30 11:24 | 52.47734 | 5.77462 | 9064 ft | 314 kts | 284° |
| 2026-04-30 11:24 | 52.48305 | 5.74013 | 8587 ft | 312 kts | 284° |
| 2026-04-30 11:25 | 52.49426 | 5.67228 | 7697 ft | 308 kts | 284° |
| 2026-04-30 11:25 | 52.49983 | 5.63853 | 7441 ft | 305 kts | 284° |
| 2026-04-30 11:25 | 52.50774 | 5.57045 | 7398 ft | 302 kts | 262° |
| 2026-04-30 11:26 | 52.49721 | 5.51728 | 7401 ft | 294 kts | 241° |
| 2026-04-30 11:26 | 52.48853 | 5.48684 | 7401 ft | 295 kts | 240° |
| 2026-04-30 11:26 | 52.47975 | 5.45654 | 7404 ft | 294 kts | 240° |
| 2026-04-30 11:27 | 52.47105 | 5.42629 | 7288 ft | 292 kts | 240° |
| 2026-04-30 11:27 | 52.46245 | 5.39625 | 6868 ft | 290 kts | 240° |
| 2026-04-30 11:27 | 52.45392 | 5.36632 | 6409 ft | 288 kts | 240° |
| 2026-04-30 11:27 | 52.44546 | 5.33662 | 5954 ft | 286 kts | 240° |
| 2026-04-30 11:28 | 52.42874 | 5.27802 | 5083 ft | 283 kts | 239° |
| 2026-04-30 11:28 | 52.42044 | 5.24893 | 4651 ft | 280 kts | 239° |
| 2026-04-30 11:28 | 52.41223 | 5.22010 | 4192 ft | 279 kts | 238° |
| 2026-04-30 11:29 | 52.40409 | 5.19172 | 3725 ft | 278 kts | 238° |
| 2026-04-30 11:29 | 52.39586 | 5.16305 | 3262 ft | 277 kts | 239° |
| 2026-04-30 11:29 | 52.37972 | 5.10674 | 2969 ft | 272 kts | 239° |
| 2026-04-30 11:30 | 52.36346 | 5.05036 | 2967 ft | 274 kts | 239° |
| 2026-04-30 11:30 | 52.35536 | 5.02221 | 2969 ft | 274 kts | 239° |
| 2026-04-30 11:30 | 52.34725 | 4.99403 | 2968 ft | 272 kts | 239° |
| 2026-04-30 11:31 | 52.33923 | 4.96606 | 2969 ft | 272 kts | 239° |
| 2026-04-30 11:31 | 52.33114 | 4.93796 | 2970 ft | 273 kts | 238° |
| 2026-04-30 11:31 | 52.32298 | 4.90991 | 2969 ft | 274 kts | 238° |
| 2026-04-30 11:31 | 52.31476 | 4.88168 | 2967 ft | 274 kts | 238° |
| 2026-04-30 11:32 | 52.30654 | 4.85354 | 2964 ft | 274 kts | 238° |
| 2026-04-30 11:32 | 52.29838 | 4.82535 | 2965 ft | 275 kts | 238° |
| 2026-04-30 11:32 | 52.29019 | 4.79711 | 2967 ft | 275 kts | 238° |
| 2026-04-30 11:33 | 52.27384 | 4.74067 | 2971 ft | 276 kts | 239° |
| 2026-04-30 11:33 | 52.26562 | 4.71239 | 2967 ft | 275 kts | 239° |
| 2026-04-30 11:33 | 52.25742 | 4.68432 | 2792 ft | 274 kts | 238° |
| 2026-04-30 11:33 | 52.24925 | 4.65671 | 2369 ft | 273 kts | 239° |
| 2026-04-30 11:34 | 52.24106 | 4.62916 | 2136 ft | 265 kts | 242° |
| 2026-04-30 11:34 | 52.23351 | 4.60243 | 2012 ft | 255 kts | 248° |
| 2026-04-30 11:34 | 52.23263 | 4.57444 | 1948 ft | 244 kts | 287° |
| 2026-04-30 11:34 | 52.24072 | 4.55193 | 1990 ft | 221 kts | 316° |
| 2026-04-30 11:35 | 52.25017 | 4.53350 | 1942 ft | 206 kts | 295° |
| 2026-04-30 11:35 | 52.25087 | 4.51153 | 1961 ft | 193 kts | 245° |
| 2026-04-30 11:35 | 52.24203 | 4.49685 | 1957 ft | 179 kts | 193° |
| 2026-04-30 11:35 | 52.23067 | 4.49861 | 1959 ft | 162 kts | 141° |
| 2026-04-30 11:36 | 52.22432 | 4.51293 | 1943 ft | 157 kts | 112° |
| 2026-04-30 11:36 | 52.22037 | 4.52956 | 1952 ft | 157 kts | 106° |
| 2026-04-30 11:36 | 52.21863 | 4.54715 | 1956 ft | 158 kts | 89° |
| 2026-04-30 11:36 | 52.22189 | 4.56436 | 1969 ft | 162 kts | 70° |
| 2026-04-30 11:37 | 52.22766 | 4.58039 | 1962 ft | 165 kts | 62° |
| 2026-04-30 11:37 | 52.23388 | 4.59582 | 1961 ft | 165 kts | 62° |
| 2026-04-30 11:37 | 52.24000 | 4.61150 | 1855 ft | 162 kts | 62° |
| 2026-04-30 11:37 | 52.24591 | 4.62685 | 1614 ft | 159 kts | 62° |
| 2026-04-30 11:38 | 52.25183 | 4.64209 | 1387 ft | 158 kts | 62° |
| 2026-04-30 11:38 | 52.25775 | 4.65727 | 1180 ft | 158 kts | 62° |
| 2026-04-30 11:38 | 52.26360 | 4.67227 | 964 ft | 155 kts | 63° |
| 2026-04-30 11:38 | 52.26939 | 4.68718 | 759 ft | 155 kts | 61° |
| 2026-04-30 11:39 | 52.27522 | 4.70215 | 547 ft | 156 kts | 63° |
| 2026-04-30 11:39 | 52.28110 | 4.71724 | 326 ft | 158 kts | 61° |
| 2026-04-30 11:39 | 52.28709 | 4.73201 | 117 ft | 158 kts | 61° |
| 2026-04-30 11:39 | 52.29285 | 4.74687 | 8 ft | 146 kts | 63° |
| 2026-04-30 11:40 | 52.29644 | 4.75668 | 1 ft | 51 kts | 55° |
| 2026-04-30 11:40 | 52.29790 | 4.76031 | -4 ft | 37 kts | 58° |
| 2026-04-30 11:40 | 52.29931 | 4.76370 | -4 ft | 36 kts | 57° |
| 2026-04-30 11:40 | 52.30111 | 4.76607 | 0 ft | 33 kts | 27° |
| 2026-04-30 11:41 | 52.30299 | 4.76798 | 0 ft | 31 kts | 48° |
| 2026-04-30 11:41 | 52.30411 | 4.77090 | 0 ft | 30 kts | 59° |
| 2026-04-30 11:41 | 52.30521 | 4.77378 | 0 ft | 30 kts | 57° |
| 2026-04-30 11:41 | 52.30663 | 4.77586 | 1 ft | 26 kts | 4° |
| 2026-04-30 11:42 | 52.30822 | 4.77554 | 1 ft | 17 kts | 314° |
| 2026-04-30 11:42 | 52.30833 | 4.77475 | 1 ft | 7 kts | 272° |
| 2026-04-30 11:42 | 52.30842 | 4.77401 | 1 ft | 6 kts | 301° |
| 2026-04-30 11:42 | 52.30867 | 4.77370 | 1 ft | 4 kts | 340° |
| 2026-04-30 11:43 | 52.30882 | 4.77367 | 1 ft | 0 kts | 357° |